Bay State Village, Massachusetts
Current Conditions -  °F | °C
As of 12:58 PM on Friday 28 Nov 2014 (Local Time) from KCEF Reporting Station
Scattered Clouds Scattered Clouds  
Wind Chill: 23°   Ceiling: Unl
Heat Index: 33°   Visibility: 10mi
Dew Point: 19°   Wind: 16mph
Humidity: 56%   Direction: 310°NW
Pressure: 30.08"   Gusts: NA
Location:  42.3249°N, 72.6582°W
Report Text: KCEF 281758Z 31014KT 10SM SCT041 01/M07 A3008 RMK AO2A SLP195 T00071072 10010 21056 57008
Loading
Personal Weather Stations






























Interactive Weather Map New forecast layout! Learn more

10-Day Weather Forecast

Advertisements
Track Severe Weather on mobile